KCRS/CRS METAR and TAF weather

Enter ICAO airport designator
Station Type Date Time Source
KCRS METAR 2020/11/27 14:08 UTC NOAA

KCRS 271408Z AUTO 02005KT 1 1/2SM BR OVC003 17/16 A3004 RMK AO2 T01670161


Station Type Date Time Source
KCRS Decoded METAR 2020/11/27 14:08 UTC NOAA

CORSICANA AIRFIELD, TX, United States (KCRS) 32-01N 96-23W 133M
Nov 27, 2020 - 09:08 AM EST / 2020.11.27 1408 UTC
Wind: from the NNE (020 degrees) at 6 MPH (5 KT):0
Visibility: 1 1/2 mile(s):0
Sky conditions: overcast
Weather: mist
Temperature: 62.1 F (16.7 C)
Dew Point: 61.0 F (16.1 C)
Relative Humidity: 96%
Pressure (altimeter): 30.04 in. Hg (1017 hPa)
ob: KCRS 271408Z AUTO 02005KT 1 1/2SM BR OVC003 17/16 A3004 RMK AO2 T01670161
cycle: 14

Station Type Date Time Source
KCRS TAF UTC NOAA

Error!

Example: see airport list